Terminal Aerodrome Forecast
Issued by NWS

Home | Current Version | Previous Version | Graphics & Text | Print | Product List | Glossary On
Versions: 1 2 3 4 5 6 7 8 9 10 11 12 13 14 15 16 17 18
443
FTUS43 KIWX 081139
TAFSBN
TAF
KSBN 081139Z 0812/0912 27013G22KT P6SM -SHSN OVC020
     FM081600 27015G23KT 6SM -SHSN OVC015
     FM081900 27015G23KT 3SM -SHSN OVC015
     FM082200 27013KT 1SM -SHSN BLSN VV008=

USA.gov is the U.S. government's official web portal to all federal, state and local government web resources and services.